Time;durP1;ratioP1;P1;durP2;ratioP2;P2;SDS_P1;SDS_P2;PMS_P1;PMS_P2;Temp;Humidity;BMP_temperature;BMP_pressure;BME280_temperature;BME280_humidity;BME280_pressure;Samples;Min_cycle;Max_cycle;Signal;HPM_P1;HPM_P2
2023/07/28 00:00:44;;;;;;;2.63;2.42;;;;;;;24.73;79.02;97888.06;5022073;27;102742;-62
2023/07/28 00:03:12;;;;;;;2.90;2.70;;;;;;;24.77;78.49;97892.84;5020287;28;102927;-60
2023/07/28 00:05:41;;;;;;;2.50;2.30;;;;;;;24.76;78.35;97893.88;5015224;28;103433;-60
2023/07/28 00:08:10;;;;;;;2.97;2.67;;;;;;;24.71;78.38;97896.41;5019674;27;103314;-60
2023/07/28 00:10:41;;;;;;;4.03;3.00;;;;;;;23.99;81.72;97896.84;5027865;27;102684;-61
2023/07/28 00:13:10;;;;;;;3.67;2.87;;;;;;;24.20;80.02;97898.41;5023277;27;103110;-61
2023/07/28 00:15:40;;;;;;;3.17;2.63;;;;;;;24.04;81.37;97894.31;5014123;28;103676;-61
2023/07/28 00:18:09;;;;;;;2.92;2.70;;;;;;;23.92;81.41;97889.78;5024989;27;103089;-61
2023/07/28 00:20:37;;;;;;;3.08;2.78;;;;;;;23.45;83.17;97889.16;5018722;27;102924;-61
2023/07/28 00:23:05;;;;;;;3.07;2.77;;;;;;;23.20;85.06;97890.81;5018506;27;103001;-61
2023/07/28 00:25:34;;;;;;;3.08;2.78;;;;;;;23.10;85.71;97890.44;5024034;27;103570;-60
2023/07/28 00:28:02;;;;;;;2.70;2.50;;;;;;;23.74;82.71;97892.38;5018256;27;103799;-60
2023/07/28 00:30:32;;;;;;;2.58;2.17;;;;;;;24.06;80.41;97888.69;5025979;27;103169;-60
2023/07/28 00:33:00;;;;;;;2.60;2.40;;;;;;;24.09;79.89;97893.66;4997053;28;103348;-60
2023/07/28 00:35:31;;;;;;;3.95;2.65;;;;;;;23.92;79.63;97876.31;5014101;27;103278;-60
2023/07/28 00:37:59;;;;;;;3.20;2.60;;;;;;;23.73;80.38;97883.44;5024790;27;103314;-60
2023/07/28 00:40:29;;;;;;;2.60;2.40;;;;;;;23.89;80.42;97880.25;4997255;27;103033;-61
2023/07/28 00:42:58;;;;;;;2.53;2.33;;;;;;;24.05;79.32;97881.66;5018070;27;102837;-61
2023/07/28 00:45:26;;;;;;;2.80;2.50;;;;;;;23.08;83.71;97876.31;4997395;28;103476;-60
2023/07/28 00:47:58;;;;;;;2.90;2.60;;;;;;;22.67;85.20;97873.88;5020221;28;103255;-65
2023/07/28 00:50:26;;;;;;;3.92;2.90;;;;;;;22.92;84.74;97866.84;5020615;27;102675;-66
2023/07/28 00:52:56;;;;;;;2.53;2.33;;;;;;;23.61;82.07;97877.88;5001234;28;104096;-65
2023/07/28 00:55:24;;;;;;;3.00;2.63;;;;;;;23.31;82.25;97871.31;5019001;27;103305;-66
2023/07/28 00:57:53;;;;;;;3.95;3.10;;;;;;;23.03;82.95;97876.13;5011781;28;106019;-66
2023/07/28 01:00:22;;;;;;;2.42;2.15;;;;;;;22.95;82.38;97881.75;5028033;27;102749;-66
2023/07/28 01:02:50;;;;;;;2.50;2.30;;;;;;;23.37;81.25;97873.19;4998630;28;102717;-65
2023/07/28 01:05:18;;;;;;;2.60;2.40;;;;;;;23.44;81.04;97868.63;5020590;27;103346;-66
2023/07/28 01:08:00;;;;;;;2.75;2.50;;;;;;;23.46;80.57;97871.13;5007239;28;104268;-66
2023/07/28 01:10:32;;;;;;;2.75;2.55;;;;;;;23.65;79.65;97873.75;4993573;28;102975;-65
2023/07/28 01:13:00;;;;;;;2.40;2.00;;;;;;;23.67;80.38;97877.03;4997935;28;104476;-66
2023/07/28 01:15:29;;;;;;;2.20;1.95;;;;;;;23.66;79.72;97874.56;5002113;28;103323;-65
2023/07/28 01:17:58;;;;;;;2.80;2.60;;;;;;;23.27;81.04;97872.75;5021250;27;103328;-65
2023/07/28 01:20:30;;;;;;;3.00;2.10;;;;;;;23.52;80.34;97876.47;5022785;27;102671;-65
2023/07/28 01:23:08;;;;;;;2.90;2.40;;;;;;;23.42;80.22;97880.66;5027739;27;102818;-65
2023/07/28 01:25:49;;;;;;;2.77;2.57;;;;;;;23.33;80.78;97861.16;5006860;27;104246;-67
2023/07/28 01:28:19;;;;;;;2.70;2.50;;;;;;;23.12;82.25;97869.50;5023203;27;103213;-67
2023/07/28 01:30:48;;;;;;;2.15;1.95;;;;;;;23.44;80.73;97865.09;4998650;28;102988;-67
2023/07/28 01:33:16;;;;;;;3.10;2.20;;;;;;;23.41;80.86;97871.72;5024246;27;102812;-65
2023/07/28 01:35:44;;;;;;;2.30;2.10;;;;;;;23.43;80.87;97863.44;5021790;27;104101;-67
2023/07/28 01:38:13;;;;;;;2.53;2.33;;;;;;;22.84;82.30;97867.03;4999660;28;103733;-66
2023/07/28 01:40:41;;;;;;;3.25;2.45;;;;;;;22.61;83.03;97868.47;5022654;27;102919;-65
2023/07/28 01:43:09;;;;;;;2.53;2.03;;;;;;;23.23;81.45;97863.47;5002775;28;102739;-66
2023/07/28 01:45:38;;;;;;;3.38;2.45;;;;;;;23.21;80.26;97860.16;5020171;27;103664;-65
2023/07/28 01:48:08;;;;;;;2.40;2.20;;;;;;;23.43;80.14;97858.88;5019260;27;103468;-67
2023/07/28 01:50:36;;;;;;;3.95;3.35;;;;;;;22.02;85.41;97869.19;5022046;27;103259;-65
2023/07/28 01:53:05;;;;;;;3.13;2.70;;;;;;;22.97;83.02;97869.72;5026385;27;103673;-66
2023/07/28 01:55:33;;;;;;;2.30;2.10;;;;;;;23.48;80.48;97860.94;5023039;27;103254;-67
2023/07/28 01:58:03;;;;;;;3.47;3.05;;;;;;;22.70;83.00;97868.09;5022708;27;104097;-66
2023/07/28 02:00:31;;;;;;;4.22;3.40;;;;;;;21.84;87.53;97863.50;5019801;28;102693;-66
2023/07/28 02:03:01;;;;;;;3.10;2.80;;;;;;;22.12;88.60;97864.25;5016330;27;102652;-65
2023/07/28 02:05:30;;;;;;;3.87;3.23;;;;;;;22.31;85.90;97863.47;4999064;27;103465;-66
2023/07/28 02:07:58;;;;;;;3.07;2.83;;;;;;;22.38;86.78;97858.09;5005381;27;104164;-66
2023/07/28 02:10:27;;;;;;;2.87;2.60;;;;;;;23.03;83.36;97857.28;5001204;27;102826;-66
2023/07/28 02:12:55;;;;;;;3.95;2.42;;;;;;;23.26;81.57;97857.66;5018032;27;103804;-66
2023/07/28 02:15:26;;;;;;;3.70;2.97;;;;;;;22.57;84.31;97861.84;5027348;27;103258;-66
2023/07/28 02:17:55;;;;;;;5.03;3.50;;;;;;;21.97;87.19;97866.28;5019007;27;103217;-67
2023/07/28 02:20:24;;;;;;;3.95;3.65;;;;;;;21.95;87.27;97863.78;5018765;27;102974;-66
2023/07/28 02:22:52;;;;;;;3.88;3.17;;;;;;;21.93;88.17;97856.97;5004647;28;102825;-66
2023/07/28 02:25:23;;;;;;;4.17;3.47;;;;;;;22.46;85.29;97860.56;5024077;27;106055;-66
2023/07/28 02:27:51;;;;;;;3.45;3.03;;;;;;;22.26;87.03;97854.38;4996140;28;103505;-66
2023/07/28 02:30:19;;;;;;;3.45;3.15;;;;;;;21.76;90.10;97859.16;5004045;27;102618;-66
2023/07/28 02:32:47;;;;;;;5.32;3.67;;;;;;;22.19;86.46;97864.25;5021712;27;102669;-66
2023/07/28 02:35:15;;;;;;;4.00;3.60;;;;;;;21.86;88.55;97864.16;5025031;27;104046;-66
2023/07/28 02:37:47;;;;;;;3.10;2.90;;;;;;;22.64;84.82;97865.38;5016848;27;103225;-65
2023/07/28 02:40:16;;;;;;;2.40;2.20;;;;;;;23.02;82.57;97877.16;5021563;27;102631;-65
2023/07/28 02:42:44;;;;;;;2.50;2.30;;;;;;;23.14;81.92;97869.28;5023522;27;103849;-66
2023/07/28 02:45:12;;;;;;;2.00;1.90;;;;;;;23.32;81.08;97866.75;4995467;27;104159;-60
2023/07/28 02:47:40;;;;;;;3.30;3.00;;;;;;;23.46;80.24;97877.34;4993669;27;104367;-60
2023/07/28 02:50:10;;;;;;;3.73;3.43;;;;;;;23.47;79.88;97876.28;4992445;28;103059;-60
2023/07/28 02:52:38;;;;;;;3.47;3.27;;;;;;;23.50;80.39;97886.63;4994535;28;102926;-60
2023/07/28 02:55:09;;;;;;;3.53;3.22;;;;;;;23.55;80.63;97883.31;5018568;27;103495;-61
2023/07/28 02:57:37;;;;;;;3.60;3.00;;;;;;;23.47;81.06;97894.31;5016475;27;104604;-61
2023/07/28 03:00:10;;;;;;;2.80;2.10;;;;;;;23.61;80.18;97894.06;4995983;28;102853;-60
2023/07/28 03:02:38;;;;;;;2.00;1.90;;;;;;;23.67;79.63;97893.22;4990484;28;104877;-61
2023/07/28 03:05:07;;;;;;;3.05;2.75;;;;;;;23.67;79.44;97900.47;4998959;27;104083;-60
2023/07/28 03:07:48;;;;;;;3.05;2.78;;;;;;;23.46;79.96;97898.06;4990383;28;105157;-60
2023/07/28 03:10:18;;;;;;;2.65;2.20;;;;;;;23.54;79.80;97904.06;4999878;28;103027;-60
2023/07/28 03:12:46;;;;;;;2.53;2.33;;;;;;;23.64;79.03;97907.13;4993802;28;104078;-60
2023/07/28 03:15:14;;;;;;;3.25;2.65;;;;;;;23.66;79.03;97918.50;5013186;28;104429;-60
2023/07/28 03:17:42;;;;;;;3.38;2.88;;;;;;;23.44;80.21;97909.03;5014784;27;103280;-60
2023/07/28 03:20:11;;;;;;;3.63;3.20;;;;;;;22.88;84.06;97921.28;5015268;27;103061;-61
2023/07/28 03:22:39;;;;;;;2.30;2.10;;;;;;;22.81;84.95;97925.88;4995947;28;103179;-66
2023/07/28 03:25:08;;;;;;;3.40;2.78;;;;;;;23.24;81.90;97934.34;5005165;28;103357;-66
2023/07/28 03:27:38;;;;;;;2.70;2.30;;;;;;;23.36;81.36;97941.56;5019787;27;103368;-66
2023/07/28 03:30:10;;;;;;;2.75;2.55;;;;;;;23.43;81.38;97939.75;4998040;28;102737;-66
2023/07/28 03:32:39;;;;;;;2.30;2.10;;;;;;;23.53;80.49;97948.22;5023406;27;104109;-66
2023/07/28 03:35:08;;;;;;;2.10;1.90;;;;;;;23.61;80.30;97947.97;5019778;27;103598;-67
2023/07/28 03:37:41;;;;;;;2.38;2.17;;;;;;;23.65;79.61;97946.53;5000188;28;103363;-66
2023/07/28 03:40:10;;;;;;;2.00;1.90;;;;;;;23.65;79.65;97962.72;4995684;27;102746;-66
2023/07/28 03:42:48;;;;;;;1.77;1.67;;;;;;;23.73;79.22;97961.66;4998938;27;104190;-66
2023/07/28 03:45:16;;;;;;;2.13;1.92;;;;;;;23.71;79.94;97957.50;5001713;28;104246;-66
2023/07/28 03:47:44;;;;;;;2.45;2.13;;;;;;;23.73;79.70;97968.91;5002913;28;104466;-67
2023/07/28 03:50:13;;;;;;;2.17;1.98;;;;;;;23.77;79.61;97970.16;5004252;28;102835;-66
2023/07/28 03:52:41;;;;;;;3.33;2.88;;;;;;;23.55;80.05;97973.09;5017177;27;103972;-66
2023/07/28 03:55:13;;;;;;;2.38;2.20;;;;;;;23.53;80.87;97967.09;4998644;28;104526;-66
2023/07/28 03:57:41;;;;;;;2.70;2.50;;;;;;;23.64;80.40;97971.00;5026302;27;103375;-66
2023/07/28 04:00:13;;;;;;;2.67;2.42;;;;;;;23.74;79.92;97962.47;5023747;27;102911;-66
2023/07/28 04:02:42;;;;;;;2.55;1.80;;;;;;;23.81;79.90;97958.72;5028225;27;104528;-67
2023/07/28 04:05:11;;;;;;;3.10;2.80;;;;;;;23.46;80.01;97954.66;5000984;27;104141;-66
2023/07/28 04:07:42;;;;;;;3.83;2.78;;;;;;;23.60;80.86;97961.69;5009174;27;104158;-66
2023/07/28 04:10:14;;;;;;;1.90;1.80;;;;;;;23.71;80.15;97957.50;4999831;28;102783;-65
2023/07/28 04:12:42;;;;;;;2.27;2.07;;;;;;;23.80;80.27;97964.34;5003736;28;103847;-66
2023/07/28 04:15:13;;;;;;;2.50;2.30;;;;;;;23.84;79.93;97950.19;4999116;28;104279;-66
2023/07/28 04:17:42;;;;;;;2.17;1.90;;;;;;;23.85;79.83;97959.97;5019980;27;103192;-66
2023/07/28 04:20:12;;;;;;;2.15;1.95;;;;;;;23.89;79.94;97954.97;5004114;28;102735;-65
2023/07/28 04:22:40;;;;;;;2.47;2.28;;;;;;;23.95;79.47;97959.50;5022869;27;102710;-65
2023/07/28 04:25:11;;;;;;;1.75;1.65;;;;;;;23.97;78.63;97942.06;5003862;27;105306;-65
2023/07/28 04:27:45;;;;;;;2.30;2.10;;;;;;;23.98;79.37;97942.88;5023420;28;103016;-66
2023/07/28 04:30:15;;;;;;;3.90;3.00;;;;;;;23.24;82.79;97945.97;4999045;28;102742;-66
2023/07/28 04:32:44;;;;;;;2.30;2.10;;;;;;;23.62;82.21;97938.03;5024425;27;102790;-66
2023/07/28 04:35:18;;;;;;;3.03;2.72;;;;;;;23.62;81.88;97938.88;5000708;28;103162;-66
2023/07/28 04:38:07;;;;;;;3.08;2.67;;;;;;;23.55;82.03;97938.03;5003206;27;103372;-65
2023/07/28 04:40:49;;;;;;;3.67;3.33;;;;;;;23.66;81.21;97939.28;5013122;27;102716;-66
2023/07/28 04:43:23;;;;;;;3.10;2.58;;;;;;;23.81;81.34;97933.63;5014864;27;103514;-64
2023/07/28 04:45:57;;;;;;;3.20;2.90;;;;;;;23.89;81.63;97933.41;5014748;27;102997;-63
2023/07/28 04:48:28;;;;;;;3.80;3.40;;;;;;;23.30;83.35;97933.53;4997717;28;105337;-63
2023/07/28 04:51:00;;;;;;;3.53;3.17;;;;;;;23.42;84.83;97937.25;4990819;28;102843;-64
2023/07/28 04:53:48;;;;;;;3.92;3.35;;;;;;;23.40;86.00;97939.31;5016175;27;102715;-64
2023/07/28 04:56:22;;;;;;;4.28;3.55;;;;;;;22.97;88.84;97949.69;5013221;27;104119;-64
2023/07/28 04:58:52;;;;;;;3.70;3.40;;;;;;;23.37;87.28;97951.31;5016246;27;103217;-63
2023/07/28 05:01:23;;;;;;;4.78;3.90;;;;;;;22.38;91.38;97950.41;4993274;28;102655;-63
2023/07/28 05:03:54;;;;;;;4.60;4.05;;;;;;;22.34;92.00;97951.81;4995192;28;102716;-64
2023/07/28 05:06:28;;;;;;;3.95;3.55;;;;;;;22.52;92.05;97952.09;4992194;28;103653;-64
2023/07/28 05:09:05;;;;;;;4.25;3.85;;;;;;;22.38;93.43;97955.78;4977576;28;103575;-64
2023/07/28 05:11:37;;;;;;;3.83;3.53;;;;;;;23.00;91.82;97971.66;4987054;27;102783;-64
2023/07/28 05:14:09;;;;;;;4.50;2.97;;;;;;;23.46;90.04;97971.69;5014296;27;102874;-65
2023/07/28 05:16:41;;;;;;;3.20;2.63;;;;;;;23.78;88.20;97963.69;4998387;27;104077;-65
2023/07/28 05:19:14;;;;;;;2.70;2.50;;;;;;;23.92;87.32;97965.31;5014906;27;103218;-64
2023/07/28 05:21:59;;;;;;;2.40;2.20;;;;;;;24.01;86.78;97966.75;5012484;27;103256;-64
2023/07/28 05:24:44;;;;;;;3.40;3.10;;;;;;;24.04;86.75;97974.41;5014833;27;103014;-64
2023/07/28 05:27:16;;;;;;;3.00;2.67;;;;;;;24.13;86.23;97978.56;5003262;27;104247;-64
2023/07/28 05:29:48;;;;;;;3.78;2.85;;;;;;;24.04;86.58;97979.81;4974958;28;103163;-64
2023/07/28 05:32:19;;;;;;;3.47;3.17;;;;;;;24.20;86.15;97979.34;4988180;27;102959;-64
2023/07/28 05:35:09;;;;;;;2.88;2.60;;;;;;;24.32;85.89;97977.66;4998607;27;102792;-64
2023/07/28 05:37:42;;;;;;;2.85;2.60;;;;;;;24.43;85.29;97982.38;4993948;27;103270;-64
2023/07/28 05:40:14;;;;;;;2.60;2.40;;;;;;;24.50;85.41;97979.63;5011372;27;103181;-63
2023/07/28 05:42:44;;;;;;;3.60;3.20;;;;;;;24.48;85.60;97979.84;5011260;28;102688;-63
2023/07/28 05:45:17;;;;;;;4.05;3.63;;;;;;;24.55;86.14;97988.75;5013340;28;102674;-63
2023/07/28 05:47:51;;;;;;;2.85;2.53;;;;;;;24.62;85.88;97992.22;5013755;27;103102;-64
2023/07/28 05:50:22;;;;;;;3.50;3.17;;;;;;;24.38;86.47;97987.59;4994103;27;104310;-63
2023/07/28 05:52:52;;;;;;;2.88;2.63;;;;;;;24.57;85.76;97997.44;4994339;27;102784;-62
2023/07/28 05:55:23;;;;;;;4.00;3.50;;;;;;;24.42;85.51;97996.88;5010215;27;103814;-63
2023/07/28 05:57:54;;;;;;;2.53;2.33;;;;;;;24.55;85.57;97994.16;5008921;28;103840;-64
2023/07/28 06:00:26;;;;;;;2.80;2.55;;;;;;;24.68;84.12;98004.88;5005459;28;103103;-63
2023/07/28 06:02:59;;;;;;;2.80;2.60;;;;;;;24.69;84.65;98001.13;4984941;28;102804;-63
2023/07/28 06:05:50;;;;;;;3.83;3.35;;;;;;;24.60;84.55;98007.81;5001835;27;104055;-63
2023/07/28 06:08:21;;;;;;;5.13;4.63;;;;;;;23.75;89.83;98013.50;5008561;27;104069;-63
2023/07/28 06:10:55;;;;;;;5.78;4.40;;;;;;;23.39;93.35;98013.97;5010075;27;103637;-63
2023/07/28 06:13:25;;;;;;;5.57;4.20;;;;;;;23.05;96.11;98011.44;4982234;28;102743;-63
2023/07/28 06:15:58;;;;;;;3.53;3.22;;;;;;;24.02;92.93;98008.88;5005677;27;102978;-63
2023/07/28 06:18:30;;;;;;;6.30;4.18;;;;;;;24.07;91.42;98009.06;5000545;28;103854;-63
2023/07/28 06:21:10;;;;;;;2.80;2.60;;;;;;;24.50;89.57;98012.88;5002822;27;104255;-64
2023/07/28 06:23:41;;;;;;;4.05;3.55;;;;;;;24.56;89.42;98011.19;5002339;28;103206;-63
2023/07/28 06:26:13;;;;;;;4.32;3.70;;;;;;;24.71;88.59;98015.22;4986316;28;103207;-63
2023/07/28 06:28:44;;;;;;;3.80;3.40;;;;;;;24.75;87.72;98013.78;5006076;27;104253;-63
2023/07/28 06:31:17;;;;;;;3.75;3.42;;;;;;;24.87;87.42;98013.09;5005881;27;102993;-63
2023/07/28 06:33:54;;;;;;;3.55;3.25;;;;;;;25.01;86.27;98020.09;4975336;28;102814;-63
2023/07/28 06:36:28;;;;;;;4.17;3.70;;;;;;;25.06;85.69;98029.19;4997436;28;102976;-63
2023/07/28 06:39:01;;;;;;;5.07;4.10;;;;;;;25.02;85.17;98032.53;5010070;28;103324;-63
2023/07/28 06:41:32;;;;;;;3.90;3.50;;;;;;;24.97;85.61;98035.06;5015104;27;103068;-64
2023/07/28 06:44:08;;;;;;;4.90;3.50;;;;;;;25.04;85.90;98038.56;5009024;27;102637;-64
2023/07/28 06:46:39;;;;;;;3.08;2.78;;;;;;;25.19;86.00;98033.66;4985722;28;102925;-64
2023/07/28 06:49:19;;;;;;;3.05;2.75;;;;;;;25.38;85.63;98038.06;5008911;27;103164;-64
2023/07/28 06:51:51;;;;;;;3.30;2.90;;;;;;;25.51;85.60;98012.84;5010874;27;103061;-64
2023/07/28 06:54:22;;;;;;;4.35;3.78;;;;;;;25.48;85.01;98027.63;5009175;28;102754;-64
2023/07/28 06:56:54;;;;;;;4.00;3.58;;;;;;;25.64;85.27;98034.34;5012932;27;103017;-64
2023/07/28 06:59:28;;;;;;;3.53;3.22;;;;;;;25.74;85.16;98040.91;5013483;28;103263;-66
2023/07/28 07:02:06;;;;;;;3.88;3.58;;;;;;;25.90;84.89;98034.94;5015165;27;103117;-56
2023/07/28 07:04:43;;;;;;;3.80;3.38;;;;;;;26.06;84.05;98038.09;4993928;28;103160;-56
2023/07/28 07:07:17;;;;;;;4.97;3.70;;;;;;;26.06;83.39;98040.78;4994115;28;103698;-56
2023/07/28 07:09:51;;;;;;;5.50;4.97;;;;;;;25.37;85.33;98053.47;5013492;27;103132;-56
2023/07/28 07:12:26;;;;;;;5.20;4.07;;;;;;;25.97;83.99;98045.66;5016596;28;103061;-56
2023/07/28 07:15:05;;;;;;;5.25;4.03;;;;;;;26.12;83.36;98046.13;5015983;28;102739;-66
2023/07/28 07:17:43;;;;;;;5.70;4.55;;;;;;;26.21;82.69;98039.41;5000528;27;102965;-66
2023/07/28 07:20:27;;;;;;;6.05;5.40;;;;;;;26.22;82.48;98045.63;5019633;28;103103;-66
2023/07/28 07:23:05;;;;;;;4.93;4.40;;;;;;;26.43;81.90;98047.91;5019701;28;103059;-66
2023/07/28 07:25:44;;;;;;;6.60;5.05;;;;;;;26.53;81.31;98045.47;4996869;28;102847;-66
2023/07/28 07:28:22;;;;;;;6.28;5.05;;;;;;;26.57;81.59;98049.38;5018742;28;102697;-66
2023/07/28 07:31:00;;;;;;;5.70;5.07;;;;;;;26.52;81.46;98046.53;5013447;27;103049;-68
2023/07/28 07:33:39;;;;;;;5.50;4.93;;;;;;;26.69;80.89;98047.56;5021527;28;103874;-66
2023/07/28 07:36:17;;;;;;;7.23;5.77;;;;;;;26.81;81.74;98053.88;5016825;28;103080;-66
2023/07/28 07:38:54;;;;;;;8.30;6.35;;;;;;;26.61;82.66;98050.56;5017216;28;102732;-66
2023/07/28 07:41:36;;;;;;;6.53;5.60;;;;;;;27.08;81.78;98048.09;5017973;28;104078;-66
2023/07/28 07:44:19;;;;;;;7.32;6.60;;;;;;;26.95;82.79;98057.22;4999883;28;103021;-66
2023/07/28 07:46:58;;;;;;;6.88;6.10;;;;;;;26.62;83.18;98057.66;5017040;27;102978;-66
2023/07/28 07:49:37;;;;;;;7.78;5.95;;;;;;;26.54;82.91;98065.25;5020893;28;102741;-65
2023/07/28 07:52:14;;;;;;;5.32;4.82;;;;;;;26.98;81.07;98068.44;5017591;28;105392;-66
2023/07/28 07:54:52;;;;;;;5.25;4.75;;;;;;;27.08;78.64;98067.06;5018695;28;102993;-65
2023/07/28 07:57:29;;;;;;;6.80;4.88;;;;;;;27.19;78.79;98068.97;5019212;28;102749;-66
2023/07/28 08:00:08;;;;;;;7.80;6.28;;;;;;;26.41;82.45;98082.50;5017138;27;102759;-66
2023/07/28 08:02:45;;;;;;;9.30;5.80;;;;;;;26.94;82.20;98078.09;5013433;28;103201;-66
2023/07/28 11:06:57;;;;;;;3.17;2.63;;;;;;;29.19;71.01;98139.09;5015158;27;102761;-62
2023/07/28 11:09:28;;;;;;;3.08;2.70;;;;;;;29.39;65.81;98141.41;5021768;27;103255;-62
2023/07/28 11:12:02;;;;;;;3.65;2.88;;;;;;;29.08;68.24;98143.47;5021276;28;103999;-62
2023/07/28 11:14:39;;;;;;;4.22;2.92;;;;;;;28.30;68.13;98148.56;5022107;28;102917;-62
2023/07/28 11:17:21;;;;;;;28.13;17.05;;;;;;;28.99;67.55;98144.97;5021941;28;102632;-58
2023/07/28 11:20:01;;;;;;;3.80;2.95;;;;;;;29.68;65.97;98140.28;5016935;28;103323;-62
2023/07/28 11:22:46;;;;;;;3.42;2.85;;;;;;;29.81;68.12;98140.00;5019211;28;103023;-59
2023/07/28 11:25:25;;;;;;;2.60;2.40;;;;;;;29.81;64.63;98135.34;5011230;28;102673;-59
2023/07/28 11:28:08;;;;;;;3.03;2.72;;;;;;;29.01;67.91;98140.09;5018301;28;102808;-59
2023/07/28 11:31:03;;;;;;;2.53;2.33;;;;;;;28.65;67.35;98138.53;5015748;28;103994;-60
2023/07/28 11:33:54;;;;;;;3.03;2.50;;;;;;;29.59;63.84;98134.41;5014066;28;102967;-65
2023/07/28 11:36:38;;;;;;;3.00;1.92;;;;;;;28.43;65.56;98131.22;5021218;28;102782;-65
2023/07/28 11:39:25;;;;;;;1.50;1.40;;;;;;;30.19;63.55;98131.88;5022541;28;102658;-64
2023/07/28 11:42:09;;;;;;;1.60;1.02;;;;;;;30.40;60.85;98133.84;5020394;27;103148;-63
2023/07/28 11:44:53;;;;;;;1.23;1.13;;;;;;;29.10;62.18;98133.22;5001931;28;103118;-64
2023/07/28 11:47:30;;;;;;;1.42;1.25;;;;;;;29.63;61.46;98126.59;5021243;27;102681;-65
2023/07/28 11:50:10;;;;;;;1.17;1.08;;;;;;;29.72;62.50;98133.28;5019636;28;103128;-65
2023/07/28 11:52:50;;;;;;;1.20;1.10;;;;;;;28.47;63.41;98124.22;5022207;28;103053;-65
2023/07/28 11:55:32;;;;;;;3.75;1.20;;;;;;;29.70;61.19;98129.97;5019945;28;103015;-66
2023/07/28 11:58:16;;;;;;;1.87;1.20;;;;;;;30.25;60.00;98132.78;5021657;27;102805;-65
2023/07/28 12:01:11;;;;;;;1.80;1.20;;;;;;;30.18;60.67;98134.84;5020357;28;102917;-66
2023/07/28 12:03:48;;;;;;;1.55;1.30;;;;;;;28.95;66.75;98127.47;5019521;28;103002;-65
2023/07/28 12:06:29;;;;;;;1.30;1.20;;;;;;;28.97;64.94;98128.03;4997853;28;104140;-65
2023/07/28 12:09:30;;;;;;;1.40;1.30;;;;;;;29.67;63.07;98133.19;5021650;28;103082;-65
2023/07/28 12:12:10;;;;;;;2.03;1.23;;;;;;;30.01;62.51;98134.06;5016070;28;102767;-65
2023/07/28 12:15:04;;;;;;;1.40;1.30;;;;;;;29.86;65.29;98146.34;5015036;27;103013;-59
2023/07/28 12:17:43;;;;;;;1.63;1.42;;;;;;;29.50;66.40;98140.50;5014657;28;103048;-65
2023/07/28 12:20:24;;;;;;;1.55;1.20;;;;;;;30.25;65.90;98138.25;5016929;27;102703;-66
2023/07/28 12:23:03;;;;;;;1.90;1.40;;;;;;;29.91;64.83;98147.50;5020902;28;103097;-66
2023/07/28 12:25:44;;;;;;;1.40;1.30;;;;;;;30.18;67.79;98141.13;5014129;28;103047;-66
2023/07/28 12:28:24;;;;;;;1.27;1.10;;;;;;;30.93;65.25;98148.78;5013215;28;103138;-59
2023/07/28 12:31:04;;;;;;;2.08;1.48;;;;;;;30.39;63.48;98147.75;5012260;28;104162;-65
2023/07/28 12:33:41;;;;;;;2.47;1.60;;;;;;;30.49;62.38;98147.88;5019088;28;102867;-65
2023/07/28 12:36:26;;;;;;;1.95;1.60;;;;;;;30.57;62.75;98149.38;5015359;28;103106;-66
2023/07/28 12:39:25;;;;;;;2.50;1.80;;;;;;;28.71;69.77;98150.34;4997437;28;103044;-66
2023/07/28 12:42:06;;;;;;;2.08;1.60;;;;;;;28.06;73.29;98145.06;5018390;28;103335;-66
2023/07/28 12:44:50;;;;;;;1.90;1.70;;;;;;;27.75;74.19;98137.19;5018479;28;103611;-65
2023/07/28 12:47:34;;;;;;;2.20;1.90;;;;;;;28.23;74.61;98134.31;5017574;27;103635;-63
2023/07/28 12:50:22;;;;;;;1.98;1.80;;;;;;;29.18;70.58;98137.44;5018046;27;103022;-65
2023/07/28 12:53:00;;;;;;;2.07;1.87;;;;;;;27.91;70.51;98141.94;5018358;28;102710;-64
2023/07/28 12:55:57;;;;;;;3.70;2.00;;;;;;;28.80;69.67;98140.72;5015259;28;103151;-65
2023/07/28 12:58:58;;;;;;;2.70;1.90;;;;;;;30.00;65.75;98137.84;5020398;28;103021;-65
2023/07/28 13:01:49;;;;;;;2.60;2.15;;;;;;;28.24;70.68;98144.09;5021486;28;102982;-60
2023/07/28 13:04:39;;;;;;;2.00;1.80;;;;;;;27.76;72.25;98141.56;5017604;27;103001;-60
2023/07/28 13:07:36;;;;;;;2.20;2.00;;;;;;;28.32;71.08;98140.22;5001121;28;102713;-65
2023/07/28 13:10:17;;;;;;;2.50;2.27;;;;;;;28.43;70.27;98142.09;4996070;28;103484;-65
2023/07/28 13:12:56;;;;;;;2.93;2.40;;;;;;;26.97;79.96;98145.41;4996881;28;103193;-59
2023/07/28 13:15:35;;;;;;;3.47;2.20;;;;;;;28.61;74.93;98148.19;4998952;28;102735;-59
2023/07/28 13:18:17;;;;;;;3.75;2.53;;;;;;;27.38;78.19;98152.75;4999064;28;102861;-59
2023/07/28 13:20:54;;;;;;;5.22;2.65;;;;;;;26.16;83.93;98157.53;4994707;28;103001;-65
2023/07/28 13:23:33;;;;;;;3.00;2.67;;;;;;;25.99;84.78;98159.13;4994331;28;103122;-59
2023/07/28 13:26:13;;;;;;;3.25;2.95;;;;;;;26.22;86.51;98164.75;4996247;28;102918;-59
2023/07/28 13:28:54;;;;;;;3.60;2.70;;;;;;;25.57;90.01;98158.78;4996979;28;103137;-59
2023/07/28 13:31:31;;;;;;;3.17;2.73;;;;;;;26.22;87.01;98164.75;4995386;28;103111;-63
2023/07/28 13:34:08;;;;;;;3.07;2.80;;;;;;;26.30;84.76;98161.78;4999185;28;103034;-63
2023/07/28 13:36:43;;;;;;;3.20;2.85;;;;;;;26.15;85.31;98169.41;4996400;28;102763;-64
2023/07/28 13:39:18;;;;;;;3.50;3.00;;;;;;;26.16;86.49;98165.66;4997980;28;102776;-64
2023/07/28 13:41:50;;;;;;;3.20;2.90;;;;;;;25.58;87.97;98168.56;4997361;28;103139;-64
2023/07/28 13:44:23;;;;;;;3.10;2.80;;;;;;;26.06;87.76;98176.94;4997537;28;102997;-64
2023/07/28 13:47:05;;;;;;;2.90;2.55;;;;;;;26.26;86.16;98171.38;4992883;28;102664;-64
2023/07/28 13:49:47;;;;;;;3.30;3.00;;;;;;;26.79;83.65;98172.50;4994877;28;102609;-63
2023/07/28 13:52:25;;;;;;;3.03;2.73;;;;;;;27.22;83.07;98176.97;4978329;28;103204;-58
2023/07/28 13:55:02;;;;;;;3.72;3.30;;;;;;;27.13;83.17;98194.59;4972902;28;105210;-66
2023/07/28 13:57:36;;;;;;;3.80;3.00;;;;;;;26.80;83.08;98190.44;4991712;28;102782;-64
2023/07/28 14:00:09;;;;;;;4.85;3.35;;;;;;;26.53;84.97;98199.84;4977031;28;102734;-64
2023/07/28 14:02:40;;;;;;;3.90;3.00;;;;;;;27.49;82.66;98208.94;4997071;28;103538;-64
2023/07/28 14:05:11;;;;;;;4.10;3.08;;;;;;;27.84;81.98;98203.66;4997335;28;103054;-64
2023/07/28 14:07:41;;;;;;;5.80;3.60;;;;;;;27.90;81.75;98199.97;5014654;28;102775;-64
2023/07/28 14:10:14;;;;;;;3.10;2.30;;;;;;;28.30;79.98;98185.75;5008981;27;103019;-64
2023/07/28 14:12:49;;;;;;;4.45;3.28;;;;;;;27.06;86.09;98157.56;5008381;27;102984;-65
2023/07/28 14:15:19;;;;;;;5.50;3.70;;;;;;;26.11;89.23;98136.50;5012761;28;103074;-65
2023/07/28 14:17:51;;;;;;;7.38;4.40;;;;;;;25.10;97.17;98122.25;4997979;28;103256;-65
2023/07/28 14:20:24;;;;;;;6.05;3.95;;;;;;;25.85;97.52;98099.69;4995333;28;102643;-65
2023/07/28 14:22:54;;;;;;;3.10;2.80;;;;;;;26.94;91.66;98110.63;5015846;28;104058;-65
2023/07/28 14:25:24;;;;;;;6.38;3.40;;;;;;;27.49;87.99;98140.31;5015974;28;103082;-65
2023/07/28 14:27:55;;;;;;;5.27;3.80;;;;;;;26.59;89.65;98165.59;4997599;27;102884;-65
2023/07/28 14:30:25;;;;;;;3.28;2.80;;;;;;;26.91;88.52;98176.13;5016113;28;102770;-65
2023/07/28 14:32:55;;;;;;;3.40;2.83;;;;;;;27.72;86.95;98183.78;4992757;28;104043;-65
2023/07/28 14:35:28;;;;;;;4.18;3.30;;;;;;;26.97;87.10;98186.06;5017080;28;102960;-65
2023/07/28 14:38:01;;;;;;;3.97;2.85;;;;;;;27.56;85.87;98188.00;5017516;28;102566;-65
2023/07/28 14:40:31;;;;;;;3.83;3.43;;;;;;;27.18;87.54;98198.28;5017484;28;102917;-65
2023/07/28 14:43:01;;;;;;;3.43;3.00;;;;;;;27.15;88.57;98187.06;4999727;28;104125;-65
2023/07/28 14:45:32;;;;;;;3.45;2.97;;;;;;;27.84;85.99;98167.53;5018033;28;102996;-66
2023/07/28 14:48:05;;;;;;;6.05;3.22;;;;;;;27.53;82.83;98165.94;5017223;28;102658;-65
2023/07/28 14:50:38;;;;;;;3.10;2.80;;;;;;;28.02;82.82;98173.69;5018721;28;102774;-65
2023/07/28 14:53:35;;;;;;;5.78;3.15;;;;;;;28.03;84.43;98182.69;5018147;28;103384;-66
2023/07/28 14:56:07;;;;;;;3.80;3.33;;;;;;;27.34;83.41;98180.56;4995280;28;103345;-65
2023/07/28 14:58:37;;;;;;;3.85;3.45;;;;;;;26.88;85.15;98182.00;5017824;28;102588;-65